createdAt,value
2023-02-25T00:01:12.537Z,85.43
2023-02-25T00:05:08.560Z,85.43
2023-02-25T00:10:08.164Z,85.43
2023-02-25T00:15:08.297Z,85.44
2023-02-25T00:20:08.355Z,85.43
2023-02-25T00:25:08.411Z,85.43
2023-02-25T00:30:10.179Z,85.42
2023-02-25T00:35:08.228Z,85.43
2023-02-25T00:40:08.341Z,85.44
2023-02-25T00:45:08.385Z,85.43
2023-02-25T00:50:08.438Z,85.42
2023-02-25T00:55:08.484Z,85.4
2023-02-25T01:00:08.515Z,85.41
2023-02-25T01:05:08.585Z,85.43
2023-02-25T01:10:08.755Z,85.41
2023-02-25T01:15:08.885Z,85.44
2023-02-25T01:20:08.941Z,85.43
2023-02-25T01:25:08.003Z,85.42
2023-02-25T01:30:08.043Z,85.43
2023-02-25T01:35:08.097Z,85.43
2023-02-25T01:40:08.155Z,85.42
2023-02-25T01:45:08.205Z,85.44
2023-02-25T01:50:08.311Z,85.43
2023-02-25T01:55:08.384Z,85.44
2023-02-25T02:00:08.483Z,85.44
2023-02-25T02:05:08.537Z,85.45
2023-02-25T02:10:08.602Z,85.44
2023-02-25T02:15:08.622Z,85.44
2023-02-25T02:20:14.324Z,85.43
2023-02-25T02:25:18.392Z,85.44
2023-02-25T02:30:08.436Z,85.43
2023-02-25T02:35:08.485Z,85.43
2023-02-25T02:40:08.579Z,85.45
2023-02-25T02:45:12.172Z,85.43
2023-02-25T02:50:08.247Z,85.43
2023-02-25T02:55:08.276Z,85.44
2023-02-25T03:00:08.361Z,85.44
2023-02-25T03:05:08.470Z,85.43
2023-02-25T03:10:08.531Z,85.42
2023-02-25T03:15:08.633Z,85.43
2023-02-25T03:20:08.725Z,85.43
2023-02-25T03:25:08.787Z,85.43
2023-02-25T03:30:08.827Z,85.42
2023-02-25T03:35:08.878Z,85.43
2023-02-25T03:40:08.970Z,85.43
2023-02-25T03:45:08.025Z,85.43
2023-02-25T03:50:08.113Z,85.42
2023-02-25T03:55:08.165Z,85.44
2023-02-25T04:00:08.228Z,85.41
2023-02-25T04:05:08.351Z,85.42
2023-02-25T04:10:08.493Z,85.42
2023-02-25T04:15:08.620Z,85.41
2023-02-25T04:20:08.725Z,85.41
2023-02-25T04:25:08.764Z,85.39
2023-02-25T04:30:08.881Z,85.39
2023-02-25T04:35:13.052Z,85.38
2023-02-25T04:40:14.372Z,85.38
2023-02-25T04:45:08.416Z,85.38
2023-02-25T04:50:08.473Z,85.38
2023-02-25T04:55:08.568Z,85.38
2023-02-25T05:00:08.630Z,85.39
2023-02-25T05:05:03.072Z,85.37
2023-02-25T05:10:02.300Z,85.35
2023-02-25T05:15:02.592Z,85.39
2023-02-25T05:20:02.949Z,85.38
2023-02-25T05:25:02.161Z,85.39
2023-02-25T05:30:02.536Z,85.41
2023-02-25T05:35:02.778Z,85.38
2023-02-25T05:40:03.167Z,85.4
2023-02-25T05:45:02.282Z,85.38
2023-02-25T05:50:02.505Z,85.41
2023-02-25T05:55:02.665Z,85.38
2023-02-25T06:00:02.932Z,85.4
2023-02-25T06:05:02.219Z,85.4
2023-02-25T06:10:02.494Z,85.4
2023-02-25T06:15:02.686Z,85.42
2023-02-25T06:20:03.034Z,85.41
2023-02-25T06:25:02.231Z,85.42
2023-02-25T06:30:02.383Z,85.4
2023-02-25T06:35:02.652Z,85.39
2023-02-25T06:40:02.913Z,85.39
2023-02-25T06:45:03.064Z,85.4
2023-02-25T06:50:02.834Z,85.42
2023-02-25T06:55:03.101Z,85.4
2023-02-25T07:00:02.282Z,85.41
2023-02-25T07:05:02.537Z,85.41
2023-02-25T07:10:02.684Z,85.4
2023-02-25T07:15:02.939Z,85.4
2023-02-25T07:20:02.106Z,85.4
2023-02-25T07:25:02.480Z,85.39
2023-02-25T07:30:02.742Z,85.4
2023-02-25T07:35:03.005Z,85.41
2023-02-25T07:40:02.277Z,85.4
2023-02-25T07:45:02.538Z,85.42
2023-02-25T07:50:02.752Z,85.39
2023-02-25T07:55:03.058Z,85.4
2023-02-25T08:00:02.292Z,85.37
2023-02-25T08:05:02.561Z,85.37
2023-02-25T08:10:02.822Z,85.38
2023-02-25T08:15:03.099Z,85.38
2023-02-25T08:20:02.391Z,85.37
2023-02-25T08:25:02.610Z,85.36
2023-02-25T08:30:02.865Z,85.37
2023-02-25T08:35:03.092Z,85.37
2023-02-25T08:40:02.414Z,85.36
2023-02-25T08:45:02.992Z,85.37
2023-02-25T08:50:02.262Z,85.34
2023-02-25T08:55:02.507Z,85.33
2023-02-25T09:00:04.918Z,85.33
2023-02-25T09:05:03.209Z,85.33
2023-02-25T09:10:02.397Z,85.33
2023-02-25T09:15:02.772Z,85.32
2023-02-25T09:20:03.032Z,85.31
2023-02-25T09:25:02.232Z,85.3
2023-02-25T09:30:02.579Z,85.27
2023-02-25T09:35:02.805Z,85.28
2023-02-25T09:40:03.113Z,85.25
2023-02-25T09:45:02.328Z,85.27
2023-02-25T09:50:02.579Z,85.27
2023-02-25T09:55:02.807Z,85.27
2023-02-25T10:00:03.100Z,85.26
2023-02-25T10:05:02.364Z,85.23
2023-02-25T10:10:02.567Z,85.24
2023-02-25T10:15:02.902Z,85.24
2023-02-25T10:20:03.189Z,85.24
2023-02-25T10:25:02.444Z,85.22
2023-02-25T10:30:02.659Z,85.21
2023-02-25T10:35:02.985Z,85.19
2023-02-25T10:40:04.475Z,85.2
2023-02-25T10:45:02.928Z,85.19
2023-02-25T10:50:03.158Z,85.19
2023-02-25T10:55:02.383Z,85.13
2023-02-25T11:00:02.639Z,85.12
2023-02-25T11:05:02.998Z,85.06
2023-02-25T11:10:12.151Z,85.05
2023-02-25T11:15:02.330Z,85.01
2023-02-25T11:20:02.688Z,85.0
2023-02-25T11:25:02.901Z,84.94
2023-02-25T11:30:03.058Z,84.93
2023-02-25T11:35:02.454Z,84.91
2023-02-25T11:40:02.589Z,84.89
2023-02-25T11:45:02.936Z,84.89
2023-02-25T11:50:02.167Z,84.92
2023-02-25T11:55:02.404Z,84.96
2023-02-25T12:00:02.618Z,84.99
2023-02-25T12:05:02.783Z,84.97
2023-02-25T12:10:03.001Z,84.95
2023-02-25T12:15:02.249Z,84.93
2023-02-25T12:20:02.515Z,84.94
2023-02-25T12:25:11.803Z,84.91
2023-02-25T12:30:03.321Z,84.87
2023-02-25T12:35:02.613Z,84.81
2023-02-25T12:40:03.067Z,84.83
2023-02-25T12:45:02.331Z,84.83
2023-02-25T12:50:02.640Z,84.81
2023-02-25T12:55:03.126Z,84.82
2023-02-25T13:00:02.623Z,84.78
2023-02-25T13:05:12.961Z,84.75
2023-02-25T13:10:02.312Z,84.76
2023-02-25T13:15:02.638Z,84.67
2023-02-25T13:20:02.912Z,84.64
2023-02-25T13:25:03.289Z,84.62
2023-02-25T13:30:04.725Z,84.62
2023-02-25T13:35:03.033Z,84.6
2023-02-25T13:40:02.325Z,84.61
2023-02-25T13:45:02.593Z,84.57
2023-02-25T13:50:02.712Z,84.59
2023-02-25T13:55:03.019Z,84.62
2023-02-25T14:00:02.165Z,84.59
2023-02-25T14:05:02.344Z,84.57
2023-02-25T14:10:02.546Z,84.6
2023-02-25T14:15:02.811Z,84.62
2023-02-25T14:20:02.934Z,84.62
2023-02-25T14:25:02.088Z,84.62
2023-02-25T14:30:02.383Z,84.61
2023-02-25T14:35:02.574Z,84.63
2023-02-25T14:40:02.764Z,84.64
2023-02-25T14:45:02.920Z,84.68
2023-02-25T14:50:03.251Z,84.65
2023-02-25T14:55:02.499Z,84.62
2023-02-25T15:00:02.723Z,84.66
2023-02-25T15:05:03.022Z,84.64
2023-02-25T15:10:02.288Z,84.64
2023-02-25T15:15:02.498Z,84.63
2023-02-25T15:20:02.757Z,84.62
2023-02-25T15:25:03.017Z,84.62
2023-02-25T15:30:02.193Z,84.61
2023-02-25T15:35:02.479Z,84.62
2023-02-25T15:40:02.813Z,84.61
2023-02-25T15:45:03.065Z,84.59
2023-02-25T15:50:02.366Z,84.56
2023-02-25T15:55:02.633Z,84.56
2023-02-25T16:00:03.000Z,84.53
2023-02-25T16:05:09.061Z,84.5
2023-02-25T16:10:02.501Z,84.52
2023-02-25T16:15:02.853Z,84.51
2023-02-25T16:20:03.104Z,84.52
2023-02-25T16:25:02.314Z,84.54
2023-02-25T16:30:02.488Z,84.53
2023-02-25T16:35:02.570Z,84.52
2023-02-25T16:40:02.737Z,84.52
2023-02-25T16:45:02.961Z,84.49
2023-02-25T16:50:02.224Z,84.49
2023-02-25T16:55:08.100Z,84.49
2023-02-25T17:00:12.434Z,84.48
2023-02-25T17:05:02.628Z,84.49
2023-02-25T17:10:02.839Z,84.51
2023-02-25T17:15:02.961Z,84.49
2023-02-25T17:20:02.215Z,84.49
2023-02-25T17:25:02.475Z,84.48
2023-02-25T17:30:02.780Z,84.45
2023-02-25T17:35:03.140Z,84.47
2023-02-25T17:40:02.437Z,84.46
2023-02-25T17:45:02.769Z,84.46
2023-02-25T17:50:03.056Z,84.48
2023-02-25T17:55:02.458Z,84.49
2023-02-25T18:00:02.711Z,84.49
2023-02-25T18:05:02.942Z,84.49
2023-02-25T18:10:02.173Z,84.5
2023-02-25T18:15:02.429Z,84.5
2023-02-25T18:20:02.640Z,84.49
2023-02-25T18:25:02.871Z,84.51
2023-02-25T18:30:03.268Z,84.5
2023-02-25T18:35:02.538Z,84.49
2023-02-25T18:40:02.828Z,84.51
2023-02-25T18:45:03.008Z,84.51
2023-02-25T18:50:02.220Z,84.5
2023-02-25T18:55:02.501Z,84.53
2023-02-25T19:00:02.821Z,84.51
2023-02-25T19:05:02.991Z,84.51
2023-02-25T19:10:02.241Z,84.53
2023-02-25T19:15:02.565Z,84.6
2023-02-25T19:20:02.860Z,84.62
2023-02-25T19:25:03.229Z,84.59
2023-02-25T19:30:02.439Z,84.56
2023-02-25T19:35:02.697Z,84.56
2023-02-25T19:40:02.941Z,84.55
2023-02-25T19:45:02.148Z,84.57
2023-02-25T19:50:02.477Z,84.54
2023-02-25T19:55:02.711Z,84.55
2023-02-25T20:00:03.084Z,84.55
2023-02-25T20:05:02.386Z,84.54
2023-02-25T20:10:02.635Z,84.56
2023-02-25T20:15:02.878Z,84.56
2023-02-25T20:20:03.097Z,84.59
2023-02-25T20:25:02.333Z,84.59
2023-02-25T20:30:02.677Z,84.61
2023-02-25T20:35:02.896Z,84.6
2023-02-25T20:40:03.155Z,84.59
2023-02-25T20:45:02.353Z,84.58
2023-02-25T20:50:02.630Z,84.6
2023-02-25T20:55:03.098Z,84.6
2023-02-25T21:00:02.466Z,84.58
2023-02-25T21:05:02.858Z,84.58
2023-02-25T21:10:03.173Z,84.59
2023-02-25T21:15:02.470Z,84.58
2023-02-25T21:20:02.838Z,84.59
2023-02-25T21:25:03.084Z,84.59
2023-02-25T21:30:02.253Z,84.58
2023-02-25T21:35:02.516Z,84.57
2023-02-25T21:40:02.743Z,84.56
2023-02-25T21:45:03.029Z,84.59
2023-02-25T21:50:02.335Z,84.59
2023-02-25T21:55:02.590Z,84.6
2023-02-25T22:00:02.763Z,84.61
2023-02-25T22:05:03.057Z,84.61
2023-02-25T22:10:02.253Z,84.61
2023-02-25T22:15:03.348Z,84.6
2023-02-25T22:20:02.497Z,84.62
2023-02-25T22:25:02.692Z,84.62
2023-02-25T22:30:02.999Z,84.62
2023-02-25T22:35:02.206Z,84.62
2023-02-25T22:40:02.392Z,84.61
2023-02-25T22:45:02.632Z,84.63
2023-02-25T22:50:02.748Z,84.63
2023-02-25T22:55:03.053Z,84.6
2023-02-25T23:00:02.373Z,84.62
2023-02-25T23:05:15.350Z,84.62
2023-02-25T23:10:08.482Z,84.64
2023-02-25T23:15:08.525Z,84.61
2023-02-25T23:20:08.605Z,84.62
2023-02-25T23:25:08.653Z,84.65
2023-02-25T23:30:08.723Z,84.64
2023-02-25T23:35:08.763Z,84.64
2023-02-25T23:40:08.824Z,84.64
2023-02-25T23:45:08.862Z,84.65
2023-02-25T23:50:08.964Z,84.66
2023-02-25T23:55:08.064Z,84.67
